sensor_id;sensor_type;location;lat;lon;timestamp;P1;durP1;ratioP1;P2;durP2;ratioP2
20639;SDS011;10479;53.524;9.846;2022-10-16T00:02:01;15.35;;;8.70;;
20639;SDS011;10479;53.524;9.846;2022-10-16T00:04:47;18.92;;;8.25;;
20639;SDS011;10479;53.524;9.846;2022-10-16T00:07:33;14.93;;;8.13;;
20639;SDS011;10479;53.524;9.846;2022-10-16T00:10:18;15.77;;;7.70;;
20639;SDS011;10479;53.524;9.846;2022-10-16T00:13:04;15.00;;;6.88;;
20639;SDS011;10479;53.524;9.846;2022-10-16T00:15:49;16.45;;;6.95;;
20639;SDS011;10479;53.524;9.846;2022-10-16T00:18:35;10.90;;;5.70;;
20639;SDS011;10479;53.524;9.846;2022-10-16T00:21:23;11.13;;;5.60;;
20639;SDS011;10479;53.524;9.846;2022-10-16T00:24:10;11.30;;;5.18;;
20639;SDS011;10479;53.524;9.846;2022-10-16T00:26:55;11.75;;;5.32;;
20639;SDS011;10479;53.524;9.846;2022-10-16T00:29:41;10.75;;;4.10;;
20639;SDS011;10479;53.524;9.846;2022-10-16T00:32:26;15.75;;;7.45;;
20639;SDS011;10479;53.524;9.846;2022-10-16T00:35:12;9.52;;;3.50;;
20639;SDS011;10479;53.524;9.846;2022-10-16T00:37:57;8.07;;;3.38;;
20639;SDS011;10479;53.524;9.846;2022-10-16T00:40:43;9.32;;;4.50;;
20639;SDS011;10479;53.524;9.846;2022-10-16T00:46:30;9.90;;;3.65;;
20639;SDS011;10479;53.524;9.846;2022-10-16T00:49:20;7.78;;;3.53;;
20639;SDS011;10479;53.524;9.846;2022-10-16T00:52:06;7.90;;;3.42;;
20639;SDS011;10479;53.524;9.846;2022-10-16T00:54:52;7.57;;;3.33;;
20639;SDS011;10479;53.524;9.846;2022-10-16T00:57:38;8.73;;;3.13;;
20639;SDS011;10479;53.524;9.846;2022-10-16T01:00:25;7.47;;;4.00;;
20639;SDS011;10479;53.524;9.846;2022-10-16T01:21:25;8.77;;;3.10;;
20639;SDS011;10479;53.524;9.846;2022-10-16T01:30:13;8.77;;;2.58;;
20639;SDS011;10479;53.524;9.846;2022-10-16T01:33:03;9.43;;;2.72;;
20639;SDS011;10479;53.524;9.846;2022-10-16T01:35:58;7.20;;;2.25;;
20639;SDS011;10479;53.524;9.846;2022-10-16T01:38:49;8.38;;;2.20;;
20639;SDS011;10479;53.524;9.846;2022-10-16T01:41:42;9.77;;;2.30;;
20639;SDS011;10479;53.524;9.846;2022-10-16T01:44:30;7.97;;;2.33;;
20639;SDS011;10479;53.524;9.846;2022-10-16T01:47:17;8.85;;;2.00;;
20639;SDS011;10479;53.524;9.846;2022-10-16T01:50:04;5.20;;;1.95;;
20639;SDS011;10479;53.524;9.846;2022-10-16T01:52:51;6.72;;;2.13;;
20639;SDS011;10479;53.524;9.846;2022-10-16T01:55:38;7.45;;;1.95;;
20639;SDS011;10479;53.524;9.846;2022-10-16T01:58:28;11.02;;;2.35;;
20639;SDS011;10479;53.524;9.846;2022-10-16T02:01:20;6.50;;;2.20;;
20639;SDS011;10479;53.524;9.846;2022-10-16T02:04:13;5.75;;;2.20;;
20639;SDS011;10479;53.524;9.846;2022-10-16T02:07:02;7.90;;;2.28;;
20639;SDS011;10479;53.524;9.846;2022-10-16T02:09:48;8.90;;;2.40;;
20639;SDS011;10479;53.524;9.846;2022-10-16T02:12:33;5.85;;;2.00;;
20639;SDS011;10479;53.524;9.846;2022-10-16T02:15:24;6.70;;;2.28;;
20639;SDS011;10479;53.524;9.846;2022-10-16T02:18:09;7.72;;;2.40;;
20639;SDS011;10479;53.524;9.846;2022-10-16T02:20:57;5.32;;;2.00;;
20639;SDS011;10479;53.524;9.846;2022-10-16T02:23:54;5.35;;;1.77;;
20639;SDS011;10479;53.524;9.846;2022-10-16T02:26:49;8.32;;;2.00;;
20639;SDS011;10479;53.524;9.846;2022-10-16T02:29:41;7.93;;;2.00;;
20639;SDS011;10479;53.524;9.846;2022-10-16T02:32:36;6.85;;;2.35;;
20639;SDS011;10479;53.524;9.846;2022-10-16T02:35:23;6.20;;;2.25;;
20639;SDS011;10479;53.524;9.846;2022-10-16T02:38:09;6.57;;;1.90;;
20639;SDS011;10479;53.524;9.846;2022-10-16T02:40:55;8.85;;;2.33;;
20639;SDS011;10479;53.524;9.846;2022-10-16T02:43:41;6.68;;;1.60;;
20639;SDS011;10479;53.524;9.846;2022-10-16T02:46:26;7.18;;;1.90;;
20639;SDS011;10479;53.524;9.846;2022-10-16T02:49:12;8.95;;;1.88;;
20639;SDS011;10479;53.524;9.846;2022-10-16T02:51:57;2.90;;;1.45;;
20639;SDS011;10479;53.524;9.846;2022-10-16T02:54:43;5.10;;;1.73;;
20639;SDS011;10479;53.524;9.846;2022-10-16T02:57:28;7.55;;;1.90;;
20639;SDS011;10479;53.524;9.846;2022-10-16T03:00:14;6.82;;;1.63;;
20639;SDS011;10479;53.524;9.846;2022-10-16T03:03:00;7.53;;;2.22;;
20639;SDS011;10479;53.524;9.846;2022-10-16T03:05:45;9.57;;;1.73;;
20639;SDS011;10479;53.524;9.846;2022-10-16T03:08:31;4.18;;;1.60;;
20639;SDS011;10479;53.524;9.846;2022-10-16T03:11:16;4.82;;;1.90;;
20639;SDS011;10479;53.524;9.846;2022-10-16T03:13:59;3.67;;;1.70;;
20639;SDS011;10479;53.524;9.846;2022-10-16T03:16:45;8.57;;;1.70;;
20639;SDS011;10479;53.524;9.846;2022-10-16T03:19:30;7.32;;;2.17;;
20639;SDS011;10479;53.524;9.846;2022-10-16T03:22:16;5.35;;;1.90;;
20639;SDS011;10479;53.524;9.846;2022-10-16T03:25:01;6.00;;;1.58;;
20639;SDS011;10479;53.524;9.846;2022-10-16T03:27:47;8.27;;;2.67;;
20639;SDS011;10479;53.524;9.846;2022-10-16T03:30:32;6.30;;;1.67;;
20639;SDS011;10479;53.524;9.846;2022-10-16T03:33:17;8.90;;;1.90;;
20639;SDS011;10479;53.524;9.846;2022-10-16T03:36:03;7.93;;;1.92;;
20639;SDS011;10479;53.524;9.846;2022-10-16T03:38:48;5.63;;;1.85;;
20639;SDS011;10479;53.524;9.846;2022-10-16T03:41:34;11.07;;;1.90;;
20639;SDS011;10479;53.524;9.846;2022-10-16T03:44:19;10.07;;;1.70;;
20639;SDS011;10479;53.524;9.846;2022-10-16T03:47:05;4.85;;;1.77;;
20639;SDS011;10479;53.524;9.846;2022-10-16T03:49:50;4.53;;;1.92;;
20639;SDS011;10479;53.524;9.846;2022-10-16T03:52:35;7.15;;;1.95;;
20639;SDS011;10479;53.524;9.846;2022-10-16T03:55:21;6.28;;;1.88;;
20639;SDS011;10479;53.524;9.846;2022-10-16T03:58:06;16.30;;;2.53;;
20639;SDS011;10479;53.524;9.846;2022-10-16T04:00:51;8.88;;;1.90;;
20639;SDS011;10479;53.524;9.846;2022-10-16T04:03:37;6.20;;;2.15;;
20639;SDS011;10479;53.524;9.846;2022-10-16T04:06:22;6.65;;;1.80;;
20639;SDS011;10479;53.524;9.846;2022-10-16T04:09:08;10.27;;;2.38;;
20639;SDS011;10479;53.524;9.846;2022-10-16T04:11:53;4.90;;;1.58;;
20639;SDS011;10479;53.524;9.846;2022-10-16T04:14:38;6.13;;;1.98;;
20639;SDS011;10479;53.524;9.846;2022-10-16T04:17:24;5.45;;;1.70;;
20639;SDS011;10479;53.524;9.846;2022-10-16T04:20:09;8.55;;;1.90;;
20639;SDS011;10479;53.524;9.846;2022-10-16T04:22:55;4.85;;;1.80;;
20639;SDS011;10479;53.524;9.846;2022-10-16T04:25:40;6.13;;;1.95;;
20639;SDS011;10479;53.524;9.846;2022-10-16T04:28:26;7.03;;;2.00;;
20639;SDS011;10479;53.524;9.846;2022-10-16T04:31:11;7.53;;;2.08;;
20639;SDS011;10479;53.524;9.846;2022-10-16T04:33:57;6.53;;;1.90;;
20639;SDS011;10479;53.524;9.846;2022-10-16T04:36:42;6.95;;;2.17;;
20639;SDS011;10479;53.524;9.846;2022-10-16T04:39:27;9.55;;;2.10;;
20639;SDS011;10479;53.524;9.846;2022-10-16T04:42:13;6.22;;;1.90;;
20639;SDS011;10479;53.524;9.846;2022-10-16T04:44:58;6.70;;;2.47;;
20639;SDS011;10479;53.524;9.846;2022-10-16T04:47:43;9.07;;;2.22;;
20639;SDS011;10479;53.524;9.846;2022-10-16T04:50:29;7.47;;;2.28;;
20639;SDS011;10479;53.524;9.846;2022-10-16T04:53:14;6.75;;;2.60;;
20639;SDS011;10479;53.524;9.846;2022-10-16T04:56:00;9.32;;;2.88;;
20639;SDS011;10479;53.524;9.846;2022-10-16T04:58:45;11.65;;;3.78;;
20639;SDS011;10479;53.524;9.846;2022-10-16T05:01:31;11.90;;;2.95;;
20639;SDS011;10479;53.524;9.846;2022-10-16T05:04:16;9.50;;;3.22;;
20639;SDS011;10479;53.524;9.846;2022-10-16T05:07:02;13.40;;;3.38;;
20639;SDS011;10479;53.524;9.846;2022-10-16T05:09:47;10.02;;;3.35;;
20639;SDS011;10479;53.524;9.846;2022-10-16T05:12:32;9.23;;;3.28;;
20639;SDS011;10479;53.524;9.846;2022-10-16T05:15:18;9.05;;;3.45;;
20639;SDS011;10479;53.524;9.846;2022-10-16T05:18:03;13.10;;;3.75;;
20639;SDS011;10479;53.524;9.846;2022-10-16T05:20:49;9.80;;;3.67;;
20639;SDS011;10479;53.524;9.846;2022-10-16T05:23:34;9.15;;;3.42;;
20639;SDS011;10479;53.524;9.846;2022-10-16T05:26:19;11.15;;;3.60;;
20639;SDS011;10479;53.524;9.846;2022-10-16T05:29:05;12.63;;;3.92;;
20639;SDS011;10479;53.524;9.846;2022-10-16T05:31:53;14.57;;;3.85;;
20639;SDS011;10479;53.524;9.846;2022-10-16T05:34:39;12.82;;;3.75;;
20639;SDS011;10479;53.524;9.846;2022-10-16T05:37:24;9.38;;;3.30;;
20639;SDS011;10479;53.524;9.846;2022-10-16T05:40:10;13.50;;;4.18;;
20639;SDS011;10479;53.524;9.846;2022-10-16T05:42:56;6.28;;;3.10;;
20639;SDS011;10479;53.524;9.846;2022-10-16T05:45:41;7.35;;;2.70;;
20639;SDS011;10479;53.524;9.846;2022-10-16T05:48:27;11.07;;;2.83;;
20639;SDS011;10479;53.524;9.846;2022-10-16T05:51:13;9.55;;;2.90;;
20639;SDS011;10479;53.524;9.846;2022-10-16T05:53:59;8.32;;;3.22;;
20639;SDS011;10479;53.524;9.846;2022-10-16T05:56:44;12.07;;;2.80;;
20639;SDS011;10479;53.524;9.846;2022-10-16T05:59:30;12.18;;;2.92;;
20639;SDS011;10479;53.524;9.846;2022-10-16T06:02:15;7.90;;;2.67;;
20639;SDS011;10479;53.524;9.846;2022-10-16T06:05:01;9.50;;;2.90;;
20639;SDS011;10479;53.524;9.846;2022-10-16T06:07:46;11.57;;;3.10;;
20639;SDS011;10479;53.524;9.846;2022-10-16T06:10:31;7.85;;;2.90;;
20639;SDS011;10479;53.524;9.846;2022-10-16T06:13:17;9.48;;;2.80;;
20639;SDS011;10479;53.524;9.846;2022-10-16T06:16:03;10.68;;;2.75;;
20639;SDS011;10479;53.524;9.846;2022-10-16T06:18:50;6.15;;;2.78;;
20639;SDS011;10479;53.524;9.846;2022-10-16T06:21:36;9.73;;;2.60;;
20639;SDS011;10479;53.524;9.846;2022-10-16T06:24:22;10.10;;;3.17;;
20639;SDS011;10479;53.524;9.846;2022-10-16T06:27:07;8.25;;;3.10;;
20639;SDS011;10479;53.524;9.846;2022-10-16T06:29:53;8.48;;;3.20;;
20639;SDS011;10479;53.524;9.846;2022-10-16T06:32:38;9.43;;;3.20;;
20639;SDS011;10479;53.524;9.846;2022-10-16T06:35:23;14.73;;;3.72;;
20639;SDS011;10479;53.524;9.846;2022-10-16T06:38:09;7.70;;;3.50;;
20639;SDS011;10479;53.524;9.846;2022-10-16T06:40:54;11.30;;;4.20;;
20639;SDS011;10479;53.524;9.846;2022-10-16T06:43:40;9.13;;;3.45;;
20639;SDS011;10479;53.524;9.846;2022-10-16T06:46:26;9.93;;;3.60;;
20639;SDS011;10479;53.524;9.846;2022-10-16T06:49:11;7.60;;;3.30;;
20639;SDS011;10479;53.524;9.846;2022-10-16T06:51:57;11.63;;;4.88;;
20639;SDS011;10479;53.524;9.846;2022-10-16T06:54:42;10.00;;;3.80;;
20639;SDS011;10479;53.524;9.846;2022-10-16T06:57:27;13.55;;;4.00;;
20639;SDS011;10479;53.524;9.846;2022-10-16T07:00:13;8.88;;;3.90;;
20639;SDS011;10479;53.524;9.846;2022-10-16T07:02:58;9.70;;;4.03;;
20639;SDS011;10479;53.524;9.846;2022-10-16T07:05:44;6.97;;;3.25;;
20639;SDS011;10479;53.524;9.846;2022-10-16T07:08:32;8.95;;;4.10;;
20639;SDS011;10479;53.524;9.846;2022-10-16T07:11:23;11.77;;;4.18;;
20639;SDS011;10479;53.524;9.846;2022-10-16T07:14:12;9.45;;;3.92;;
20639;SDS011;10479;53.524;9.846;2022-10-16T07:17:01;8.85;;;3.25;;
20639;SDS011;10479;53.524;9.846;2022-10-16T07:19:46;9.40;;;4.25;;
20639;SDS011;10479;53.524;9.846;2022-10-16T07:22:32;8.13;;;3.83;;
20639;SDS011;10479;53.524;9.846;2022-10-16T07:25:17;13.02;;;4.25;;
20639;SDS011;10479;53.524;9.846;2022-10-16T07:28:03;9.73;;;4.13;;
20639;SDS011;10479;53.524;9.846;2022-10-16T07:30:48;9.07;;;4.22;;
20639;SDS011;10479;53.524;9.846;2022-10-16T07:33:34;9.35;;;3.65;;
20639;SDS011;10479;53.524;9.846;2022-10-16T07:36:20;13.77;;;4.00;;
20639;SDS011;10479;53.524;9.846;2022-10-16T07:39:06;10.15;;;3.80;;
20639;SDS011;10479;53.524;9.846;2022-10-16T07:41:53;6.45;;;3.40;;
20639;SDS011;10479;53.524;9.846;2022-10-16T07:44:38;10.93;;;3.38;;
20639;SDS011;10479;53.524;9.846;2022-10-16T07:47:24;8.52;;;3.30;;
20639;SDS011;10479;53.524;9.846;2022-10-16T07:50:10;8.38;;;3.50;;
20639;SDS011;10479;53.524;9.846;2022-10-16T07:52:55;7.32;;;3.42;;
20639;SDS011;10479;53.524;9.846;2022-10-16T07:55:41;10.90;;;3.10;;
20639;SDS011;10479;53.524;9.846;2022-10-16T07:58:27;9.70;;;3.70;;
20639;SDS011;10479;53.524;9.846;2022-10-16T08:01:14;7.45;;;3.40;;
20639;SDS011;10479;53.524;9.846;2022-10-16T08:04:00;7.80;;;3.60;;
20639;SDS011;10479;53.524;9.846;2022-10-16T08:06:46;9.05;;;3.20;;
20639;SDS011;10479;53.524;9.846;2022-10-16T08:09:31;8.32;;;3.33;;
20639;SDS011;10479;53.524;9.846;2022-10-16T08:12:17;8.45;;;4.05;;
20639;SDS011;10479;53.524;9.846;2022-10-16T08:15:02;9.65;;;3.30;;
20639;SDS011;10479;53.524;9.846;2022-10-16T08:17:58;9.65;;;3.53;;
20639;SDS011;10479;53.524;9.846;2022-10-16T08:20:44;7.93;;;3.47;;
20639;SDS011;10479;53.524;9.846;2022-10-16T08:23:30;8.55;;;3.55;;
20639;SDS011;10479;53.524;9.846;2022-10-16T08:26:15;8.30;;;3.47;;
20639;SDS011;10479;53.524;9.846;2022-10-16T08:29:01;6.65;;;3.00;;
20639;SDS011;10479;53.524;9.846;2022-10-16T08:31:47;8.73;;;3.17;;
20639;SDS011;10479;53.524;9.846;2022-10-16T08:34:32;7.00;;;3.00;;
20639;SDS011;10479;53.524;9.846;2022-10-16T08:37:17;9.93;;;3.10;;
20639;SDS011;10479;53.524;9.846;2022-10-16T08:40:04;11.25;;;3.20;;
20639;SDS011;10479;53.524;9.846;2022-10-16T08:42:58;8.13;;;2.70;;
20639;SDS011;10479;53.524;9.846;2022-10-16T08:48:53;5.90;;;2.38;;
20639;SDS011;10479;53.524;9.846;2022-10-16T08:51:40;5.55;;;2.72;;
20639;SDS011;10479;53.524;9.846;2022-10-16T08:57:12;5.82;;;2.38;;
20639;SDS011;10479;53.524;9.846;2022-10-16T09:00:00;6.18;;;2.60;;
20639;SDS011;10479;53.524;9.846;2022-10-16T09:03:03;4.97;;;2.30;;
20639;SDS011;10479;53.524;9.846;2022-10-16T09:06:10;7.20;;;2.15;;
20639;SDS011;10479;53.524;9.846;2022-10-16T09:09:04;6.35;;;1.83;;
20639;SDS011;10479;53.524;9.846;2022-10-16T09:15:07;6.65;;;1.65;;
20639;SDS011;10479;53.524;9.846;2022-10-16T09:24:21;5.30;;;1.65;;
20639;SDS011;10479;53.524;9.846;2022-10-16T09:27:12;4.65;;;1.42;;
20639;SDS011;10479;53.524;9.846;2022-10-16T09:29:58;3.28;;;1.40;;
20639;SDS011;10479;53.524;9.846;2022-10-16T09:32:44;5.60;;;1.20;;
20639;SDS011;10479;53.524;9.846;2022-10-16T09:35:35;7.00;;;1.50;;
20639;SDS011;10479;53.524;9.846;2022-10-16T09:41:19;5.10;;;1.40;;
20639;SDS011;10479;53.524;9.846;2022-10-16T09:44:06;5.80;;;2.33;;
20639;SDS011;10479;53.524;9.846;2022-10-16T09:47:04;5.00;;;1.50;;
20639;SDS011;10479;53.524;9.846;2022-10-16T09:49:57;5.13;;;1.27;;
20639;SDS011;10479;53.524;9.846;2022-10-16T09:52:44;5.80;;;1.40;;
20639;SDS011;10479;53.524;9.846;2022-10-16T09:55:30;5.03;;;1.30;;
20639;SDS011;10479;53.524;9.846;2022-10-16T09:58:11;5.50;;;1.58;;
20639;SDS011;10479;53.524;9.846;2022-10-16T10:00:58;5.73;;;1.43;;
20639;SDS011;10479;53.524;9.846;2022-10-16T10:03:43;6.68;;;1.60;;
20639;SDS011;10479;53.524;9.846;2022-10-16T10:06:31;4.95;;;1.42;;
20639;SDS011;10479;53.524;9.846;2022-10-16T10:12:16;7.70;;;1.50;;
20639;SDS011;10479;53.524;9.846;2022-10-16T10:15:06;5.47;;;1.50;;
20639;SDS011;10479;53.524;9.846;2022-10-16T10:17:54;5.05;;;1.30;;
20639;SDS011;10479;53.524;9.846;2022-10-16T10:20:41;6.55;;;1.42;;
20639;SDS011;10479;53.524;9.846;2022-10-16T10:23:27;7.38;;;1.40;;
20639;SDS011;10479;53.524;9.846;2022-10-16T10:26:15;8.27;;;1.58;;
20639;SDS011;10479;53.524;9.846;2022-10-16T10:29:08;5.28;;;1.50;;
20639;SDS011;10479;53.524;9.846;2022-10-16T10:35:22;8.25;;;1.40;;
20639;SDS011;10479;53.524;9.846;2022-10-16T10:38:21;5.30;;;1.20;;
20639;SDS011;10479;53.524;9.846;2022-10-16T10:56:16;4.70;;;1.00;;
20639;SDS011;10479;53.524;9.846;2022-10-16T11:08:02;6.45;;;1.15;;
20639;SDS011;10479;53.524;9.846;2022-10-16T11:16:57;7.75;;;0.93;;
20639;SDS011;10479;53.524;9.846;2022-10-16T11:19:34;8.95;;;0.90;;
20639;SDS011;10479;53.524;9.846;2022-10-16T11:22:42;6.13;;;1.23;;
20639;SDS011;10479;53.524;9.846;2022-10-16T11:25:31;4.55;;;1.00;;
20639;SDS011;10479;53.524;9.846;2022-10-16T11:28:19;7.35;;;1.00;;
20639;SDS011;10479;53.524;9.846;2022-10-16T11:31:08;5.13;;;0.75;;
20639;SDS011;10479;53.524;9.846;2022-10-16T11:40:14;4.30;;;1.02;;
20639;SDS011;10479;53.524;9.846;2022-10-16T11:43:06;6.72;;;1.08;;
20639;SDS011;10479;53.524;9.846;2022-10-16T11:46:04;4.97;;;0.75;;
20639;SDS011;10479;53.524;9.846;2022-10-16T11:49:00;5.57;;;1.30;;
20639;SDS011;10479;53.524;9.846;2022-10-16T11:54:49;6.75;;;1.10;;
20639;SDS011;10479;53.524;9.846;2022-10-16T12:00:40;3.63;;;0.88;;
20639;SDS011;10479;53.524;9.846;2022-10-16T12:03:47;8.30;;;1.20;;
20639;SDS011;10479;53.524;9.846;2022-10-16T12:09:36;5.50;;;0.98;;
20639;SDS011;10479;53.524;9.846;2022-10-16T12:12:45;4.85;;;0.90;;
20639;SDS011;10479;53.524;9.846;2022-10-16T12:15:32;8.23;;;1.70;;
20639;SDS011;10479;53.524;9.846;2022-10-16T12:18:24;4.38;;;0.90;;
20639;SDS011;10479;53.524;9.846;2022-10-16T12:21:10;7.32;;;0.95;;
20639;SDS011;10479;53.524;9.846;2022-10-16T12:24:00;3.40;;;0.80;;
20639;SDS011;10479;53.524;9.846;2022-10-16T12:26:48;5.60;;;1.08;;
20639;SDS011;10479;53.524;9.846;2022-10-16T12:35:17;6.15;;;0.88;;
20639;SDS011;10479;53.524;9.846;2022-10-16T12:41:32;6.80;;;0.85;;
20639;SDS011;10479;53.524;9.846;2022-10-16T12:44:21;9.20;;;1.05;;
20639;SDS011;10479;53.524;9.846;2022-10-16T12:47:18;5.30;;;0.80;;
20639;SDS011;10479;53.524;9.846;2022-10-16T12:50:22;5.15;;;0.90;;
20639;SDS011;10479;53.524;9.846;2022-10-16T12:56:10;6.00;;;1.00;;
20639;SDS011;10479;53.524;9.846;2022-10-16T12:59:04;5.72;;;1.33;;
20639;SDS011;10479;53.524;9.846;2022-10-16T13:20:46;6.72;;;1.10;;
20639;SDS011;10479;53.524;9.846;2022-10-16T13:27:03;5.80;;;0.90;;
20639;SDS011;10479;53.524;9.846;2022-10-16T13:30:00;6.63;;;1.10;;
20639;SDS011;10479;53.524;9.846;2022-10-16T13:32:48;4.38;;;0.93;;
20639;SDS011;10479;53.524;9.846;2022-10-16T13:35:36;4.88;;;1.20;;
20639;SDS011;10479;53.524;9.846;2022-10-16T13:38:18;3.67;;;0.73;;
20639;SDS011;10479;53.524;9.846;2022-10-16T13:41:15;4.88;;;0.80;;
20639;SDS011;10479;53.524;9.846;2022-10-16T13:44:02;4.28;;;0.77;;
20639;SDS011;10479;53.524;9.846;2022-10-16T13:46:57;6.05;;;0.80;;
20639;SDS011;10479;53.524;9.846;2022-10-16T13:49:43;8.35;;;1.08;;
20639;SDS011;10479;53.524;9.846;2022-10-16T13:52:29;7.35;;;1.05;;
20639;SDS011;10479;53.524;9.846;2022-10-16T13:55:16;9.40;;;1.15;;
20639;SDS011;10479;53.524;9.846;2022-10-16T13:58:12;6.60;;;1.00;;
20639;SDS011;10479;53.524;9.846;2022-10-16T14:01:00;4.25;;;0.88;;
20639;SDS011;10479;53.524;9.846;2022-10-16T14:03:47;6.60;;;1.08;;
20639;SDS011;10479;53.524;9.846;2022-10-16T14:06:33;7.32;;;1.35;;
20639;SDS011;10479;53.524;9.846;2022-10-16T14:09:24;5.88;;;1.02;;
20639;SDS011;10479;53.524;9.846;2022-10-16T14:12:11;5.18;;;0.90;;
20639;SDS011;10479;53.524;9.846;2022-10-16T14:14:57;9.25;;;1.40;;
20639;SDS011;10479;53.524;9.846;2022-10-16T14:17:44;6.38;;;1.10;;
20639;SDS011;10479;53.524;9.846;2022-10-16T14:20:31;5.88;;;1.25;;
20639;SDS011;10479;53.524;9.846;2022-10-16T14:29:10;4.57;;;0.85;;
20639;SDS011;10479;53.524;9.846;2022-10-16T14:32:00;7.22;;;1.00;;
20639;SDS011;10479;53.524;9.846;2022-10-16T14:34:53;8.85;;;0.82;;
20639;SDS011;10479;53.524;9.846;2022-10-16T14:37:39;9.90;;;1.10;;
20639;SDS011;10479;53.524;9.846;2022-10-16T14:40:25;8.50;;;0.95;;
20639;SDS011;10479;53.524;9.846;2022-10-16T14:43:22;6.25;;;1.00;;
20639;SDS011;10479;53.524;9.846;2022-10-16T14:46:20;5.10;;;0.80;;
20639;SDS011;10479;53.524;9.846;2022-10-16T14:51:56;8.73;;;1.17;;
20639;SDS011;10479;53.524;9.846;2022-10-16T14:54:43;7.65;;;1.10;;
20639;SDS011;10479;53.524;9.846;2022-10-16T14:57:28;7.07;;;0.90;;
20639;SDS011;10479;53.524;9.846;2022-10-16T15:00:23;4.38;;;0.65;;
20639;SDS011;10479;53.524;9.846;2022-10-16T15:03:09;8.27;;;1.10;;
20639;SDS011;10479;53.524;9.846;2022-10-16T15:05:54;9.55;;;1.40;;
20639;SDS011;10479;53.524;9.846;2022-10-16T15:08:20;13.23;;;1.27;;
20639;SDS011;10479;53.524;9.846;2022-10-16T15:11:07;9.27;;;1.23;;
20639;SDS011;10479;53.524;9.846;2022-10-16T15:13:58;12.90;;;1.15;;
20639;SDS011;10479;53.524;9.846;2022-10-16T15:16:43;5.03;;;0.82;;
20639;SDS011;10479;53.524;9.846;2022-10-16T15:19:29;7.80;;;1.20;;
20639;SDS011;10479;53.524;9.846;2022-10-16T15:22:14;7.60;;;1.10;;
20639;SDS011;10479;53.524;9.846;2022-10-16T15:25:00;7.65;;;0.90;;
20639;SDS011;10479;53.524;9.846;2022-10-16T15:27:45;10.07;;;1.17;;
20639;SDS011;10479;53.524;9.846;2022-10-16T15:30:31;9.20;;;1.38;;
20639;SDS011;10479;53.524;9.846;2022-10-16T15:33:17;8.10;;;1.08;;
20639;SDS011;10479;53.524;9.846;2022-10-16T15:36:04;3.53;;;0.77;;
20639;SDS011;10479;53.524;9.846;2022-10-16T15:38:49;6.80;;;1.08;;
20639;SDS011;10479;53.524;9.846;2022-10-16T15:41:35;5.88;;;1.15;;
20639;SDS011;10479;53.524;9.846;2022-10-16T15:44:20;6.43;;;0.90;;
20639;SDS011;10479;53.524;9.846;2022-10-16T15:47:08;5.90;;;1.20;;
20639;SDS011;10479;53.524;9.846;2022-10-16T15:49:56;6.93;;;1.00;;
20639;SDS011;10479;53.524;9.846;2022-10-16T15:52:42;9.52;;;1.30;;
20639;SDS011;10479;53.524;9.846;2022-10-16T15:55:27;3.55;;;0.88;;
20639;SDS011;10479;53.524;9.846;2022-10-16T15:58:13;10.45;;;1.35;;
20639;SDS011;10479;53.524;9.846;2022-10-16T16:00:58;7.10;;;0.80;;
20639;SDS011;10479;53.524;9.846;2022-10-16T16:04:05;7.00;;;1.35;;
20639;SDS011;10479;53.524;9.846;2022-10-16T16:06:50;15.38;;;1.25;;
20639;SDS011;10479;53.524;9.846;2022-10-16T16:09:35;7.53;;;1.40;;
20639;SDS011;10479;53.524;9.846;2022-10-16T16:12:21;5.75;;;1.08;;
20639;SDS011;10479;53.524;9.846;2022-10-16T16:15:07;5.32;;;0.93;;
20639;SDS011;10479;53.524;9.846;2022-10-16T16:17:53;8.38;;;1.40;;
20639;SDS011;10479;53.524;9.846;2022-10-16T16:20:39;10.35;;;1.70;;
20639;SDS011;10479;53.524;9.846;2022-10-16T16:23:24;7.32;;;1.15;;
20639;SDS011;10479;53.524;9.846;2022-10-16T16:32:41;7.85;;;1.17;;
20639;SDS011;10479;53.524;9.846;2022-10-16T16:35:27;13.98;;;1.40;;
20639;SDS011;10479;53.524;9.846;2022-10-16T16:38:12;6.35;;;1.10;;
20639;SDS011;10479;53.524;9.846;2022-10-16T16:40:58;10.77;;;1.38;;
20639;SDS011;10479;53.524;9.846;2022-10-16T16:43:43;8.15;;;1.20;;
20639;SDS011;10479;53.524;9.846;2022-10-16T16:46:30;8.45;;;1.85;;
20639;SDS011;10479;53.524;9.846;2022-10-16T16:49:17;11.68;;;1.20;;
20639;SDS011;10479;53.524;9.846;2022-10-16T16:52:02;7.35;;;1.30;;
20639;SDS011;10479;53.524;9.846;2022-10-16T16:54:48;7.18;;;1.33;;
20639;SDS011;10479;53.524;9.846;2022-10-16T16:57:36;6.00;;;1.10;;
20639;SDS011;10479;53.524;9.846;2022-10-16T17:00:22;7.05;;;1.55;;
20639;SDS011;10479;53.524;9.846;2022-10-16T17:03:07;8.55;;;1.42;;
20639;SDS011;10479;53.524;9.846;2022-10-16T17:05:57;7.18;;;1.38;;
20639;SDS011;10479;53.524;9.846;2022-10-16T17:08:47;10.00;;;1.35;;
20639;SDS011;10479;53.524;9.846;2022-10-16T17:11:33;9.82;;;1.25;;
20639;SDS011;10479;53.524;9.846;2022-10-16T17:14:19;11.60;;;1.25;;
20639;SDS011;10479;53.524;9.846;2022-10-16T17:17:04;9.30;;;1.13;;
20639;SDS011;10479;53.524;9.846;2022-10-16T17:19:51;8.45;;;1.35;;
20639;SDS011;10479;53.524;9.846;2022-10-16T17:22:37;5.85;;;1.13;;
20639;SDS011;10479;53.524;9.846;2022-10-16T17:25:22;4.38;;;1.20;;
20639;SDS011;10479;53.524;9.846;2022-10-16T17:28:08;7.13;;;0.90;;
20639;SDS011;10479;53.524;9.846;2022-10-16T17:31:06;5.50;;;1.15;;
20639;SDS011;10479;53.524;9.846;2022-10-16T17:36:48;6.13;;;1.23;;
20639;SDS011;10479;53.524;9.846;2022-10-16T17:39:33;5.85;;;1.23;;
20639;SDS011;10479;53.524;9.846;2022-10-16T17:42:19;4.20;;;0.90;;
20639;SDS011;10479;53.524;9.846;2022-10-16T17:45:04;9.23;;;1.10;;
20639;SDS011;10479;53.524;9.846;2022-10-16T17:47:50;8.98;;;1.35;;
20639;SDS011;10479;53.524;9.846;2022-10-16T17:50:39;8.20;;;1.52;;
20639;SDS011;10479;53.524;9.846;2022-10-16T17:53:25;6.45;;;1.42;;
20639;SDS011;10479;53.524;9.846;2022-10-16T17:56:11;9.43;;;1.73;;
20639;SDS011;10479;53.524;9.846;2022-10-16T17:58:58;6.82;;;1.35;;
20639;SDS011;10479;53.524;9.846;2022-10-16T18:01:45;8.48;;;1.42;;
20639;SDS011;10479;53.524;9.846;2022-10-16T18:04:31;9.25;;;1.65;;
20639;SDS011;10479;53.524;9.846;2022-10-16T18:07:16;10.82;;;1.48;;
20639;SDS011;10479;53.524;9.846;2022-10-16T18:10:02;5.32;;;1.20;;
20639;SDS011;10479;53.524;9.846;2022-10-16T18:12:50;5.00;;;1.00;;
20639;SDS011;10479;53.524;9.846;2022-10-16T18:15:36;4.70;;;1.00;;
20639;SDS011;10479;53.524;9.846;2022-10-16T18:18:21;6.38;;;1.00;;
20639;SDS011;10479;53.524;9.846;2022-10-16T18:21:07;5.55;;;1.17;;
20639;SDS011;10479;53.524;9.846;2022-10-16T18:23:56;7.85;;;1.60;;
20639;SDS011;10479;53.524;9.846;2022-10-16T18:26:42;12.32;;;2.05;;
20639;SDS011;10479;53.524;9.846;2022-10-16T18:29:28;12.68;;;2.45;;
20639;SDS011;10479;53.524;9.846;2022-10-16T18:32:13;9.38;;;1.60;;
20639;SDS011;10479;53.524;9.846;2022-10-16T18:34:58;6.20;;;1.00;;
20639;SDS011;10479;53.524;9.846;2022-10-16T18:37:44;6.57;;;1.08;;
20639;SDS011;10479;53.524;9.846;2022-10-16T18:40:30;4.55;;;1.08;;
20639;SDS011;10479;53.524;9.846;2022-10-16T18:43:15;11.07;;;1.40;;
20639;SDS011;10479;53.524;9.846;2022-10-16T18:46:03;11.95;;;2.30;;
20639;SDS011;10479;53.524;9.846;2022-10-16T18:48:50;8.93;;;2.60;;
20639;SDS011;10479;53.524;9.846;2022-10-16T18:51:36;5.15;;;1.67;;
20639;SDS011;10479;53.524;9.846;2022-10-16T18:54:24;8.23;;;1.20;;
20639;SDS011;10479;53.524;9.846;2022-10-16T18:57:09;6.22;;;1.45;;
20639;SDS011;10479;53.524;9.846;2022-10-16T18:59:55;11.85;;;1.50;;
20639;SDS011;10479;53.524;9.846;2022-10-16T19:02:41;5.35;;;1.10;;
20639;SDS011;10479;53.524;9.846;2022-10-16T19:05:26;4.95;;;1.52;;
20639;SDS011;10479;53.524;9.846;2022-10-16T19:08:12;8.27;;;3.58;;
20639;SDS011;10479;53.524;9.846;2022-10-16T19:11:02;9.63;;;2.88;;
20639;SDS011;10479;53.524;9.846;2022-10-16T19:14:04;8.95;;;2.75;;
20639;SDS011;10479;53.524;9.846;2022-10-16T19:16:49;7.38;;;1.80;;